Terminal Aerodrome Forecast
Issued by NWS

Home | Current Version | Previous Version | Text Only | Print | Product List | Glossary On
Versions: 1 2 3 4 5 6 7 8 9 10 11 12 13 14 15 16 17
000
FTUS43 KMQT 221100
TAFCMX
TAF
KCMX 221138Z 2212/2312 18007KT 3/4SM -SN BR VV003
     FM221400 17007KT 3SM -SN OVC007
     FM221600 14008KT P6SM OVC015
     FM221900 13008KT P6SM BKN030
     FM230900 11009KT P6SM -SN OVC015=

USA.gov is the U.S. government's official web portal to all federal, state and local government web resources and services.